Meteo Giornale » Osservazioni meteo Italia » Treviso-Istrana

ore: 15:55 - Osservazioni Meteo Treviso-Istrana
Lat. 45° 41' N Lon. 12° 6' E Alt. 45 metri s.l.m.

sereno Europe/Rome

29 °C

Sereno

Temp. 24 Ore

18 °C

29 °C

Sud/Sud-Ovest

7.4 Km/h

Dew point 15 °C

Umidità 42 %

Visibilità  10 Km

Il sole sorge alle ore 05:25

Il sole tramonta alle ore 20:52

Data e Ora Cielo e Fenomeni T °C DP °C Um. % Pres. hPa Vis. km Vento km/h
Oggi h: 15:55 sereno Sereno 29 15 42 1019 10 S/SO 7.4
Oggi h: 14:55 poco_nuvoloso Poco Nuvoloso 29 15 42 1020 10 S 7.4
Oggi h: 13:55 poco_nuvoloso Poco Nuvoloso 28 16 48 1020 10 N 5.5
Oggi h: 12:55 poco_nuvoloso Poco Nuvoloso 28 17 51 1020 10 O 7.4
Oggi h: 11:55 poco_nuvoloso Poco Nuvoloso 27 17 54 1021 10 E 7.4
Oggi h: 10:55 sereno Sereno 26 18 61 1021 10 E/SE 9.3
Oggi h: 09:55 sereno Sereno 25 20 73 1021 10 E 9.3
Oggi h: 08:55 sereno Sereno 23 20 83 1021 10 E 13
Oggi h: 07:55 sereno Sereno 20 18 88 1021 10 E/NE 7.4
Oggi h: 06:55 sereno Sereno 19 17 88 1021 10 N 5.5
Oggi h: 05:55 sereno Sereno 18 17 93 1020 10 NE 7.4
Oggi h: 04:55 sereno Sereno 18 16 88 1020 10 E/NE 9.3
Oggi h: 03:55 molto_nuvoloso Molto Nuvoloso 18 16 88 1021 10 NE 7.4
Oggi h: 02:55 sereno Sereno 18 16 88 1020 10 N 5.5
Oggi h: 01:55 molto_nuvoloso Molto Nuvoloso 18 17 93 1020 10 N 0
Oggi h: 00:55 nuvoloso Nuvoloso 18 17 93 1020 10 N 0
Ieri h: 23:55 nuvoloso Nuvoloso 19 17 88 1020 10 N 0
Ieri h: 21:55 sereno Sereno 22 16 68 1019 10 N 0
Ieri h: 20:55 sereno Sereno 24 16 60 1019 10 N 5.5
Ieri h: 19:55 sereno Sereno 26 14 47 1018 10 SO 7.4
Ieri h: 18:55 sereno Sereno 27 14 44 1018 10 SO 11.1
Ieri h: 17:55 sereno Sereno 28 12 37 1018 10 SO 13
Ieri h: 16:55 sereno Sereno 28 14 42 1018 10 S/SO 9.3